Terminal Aerodrome Forecast
Issued by NWS Buffalo, NY

Home | Current Version | Previous Version | Text Only | Print | Product List | Glossary On
Versions: 1 2 3 4 5 6 7 8 9 10 11 12 13 14 15 16 17 18 19 20 21 22 23 24 25 26 27
000
FTUS41 KBUF 212200 AAC
TAFART
TAF AMD
KART 212225Z 2122/2218 VRB03KT P6SM BKN020
     FM220700 00000KT P6SM BKN035
     FM221300 08004KT P6SM BKN045
     FM221600 11004KT P6SM SCT050=

USA.gov is the U.S. government's official web portal to all federal, state and local government web resources and services.